Time;durP1;ratioP1;P1;durP2;ratioP2;P2;SDS_P1;SDS_P2;PMS_P1;PMS_P2;Temp;Humidity;BMP_temperature;BMP_pressure;BME280_temperature;BME280_humidity;BME280_pressure;Samples;Min_cycle;Max_cycle;Signal;HPM_P1;HPM_P2
2022/08/31 00:04:03;;;;;;;13.50;12.90;;;23.10;83.80;;;;;;4991863;28;20445;-74
2022/08/31 00:06:31;;;;;;;14.60;13.80;;;23.00;84.10;;;;;;4991790;28;20447;-75
2022/08/31 00:08:58;;;;;;;14.70;13.90;;;23.00;86.00;;;;;;4991552;28;20521;-76
2022/08/31 00:11:30;;;;;;;15.20;14.50;;;22.80;88.00;;;;;;4991397;28;21064;-76
2022/08/31 00:13:58;;;;;;;19.77;18.77;;;22.50;90.50;;;;;;4991581;28;20824;-77
2022/08/31 00:16:26;;;;;;;20.70;19.30;;;22.10;92.00;;;;;;4991504;28;20447;-74
2022/08/31 00:18:52;;;;;;;18.90;18.10;;;21.70;93.20;;;;;;4991288;28;20478;-74
2022/08/31 00:21:21;;;;;;;20.93;19.73;;;21.30;98.50;;;;;;4991669;28;20457;-74
2022/08/31 00:23:49;;;;;;;21.83;20.53;;;20.90;99.90;;;;;;4991847;28;20465;-73
2022/08/31 00:26:16;;;;;;;22.93;21.50;;;20.60;99.90;;;;;;4991622;28;20932;-73
2022/08/31 00:28:44;;;;;;;24.67;23.00;;;20.50;99.90;;;;;;4991363;28;20527;-73
2022/08/31 00:31:11;;;;;;;25.07;23.63;;;20.40;99.90;;;;;;4990851;28;20488;-73
2022/08/31 00:33:38;;;;;;;25.07;23.67;;;20.20;99.90;;;;;;4989114;28;20478;-72
2022/08/31 00:36:08;;;;;;;25.80;24.07;;;20.10;99.90;;;;;;4991074;28;20455;-72
2022/08/31 00:38:35;;;;;;;25.57;24.17;;;20.00;99.90;;;;;;4990994;28;20482;-72
2022/08/31 00:41:02;;;;;;;26.10;24.40;;;20.00;99.90;;;;;;4990872;28;20458;-72
2022/08/31 00:43:38;;;;;;;25.90;24.43;;;19.90;99.90;;;;;;4991232;28;20802;-72
2022/08/31 00:46:07;;;;;;;26.27;25.00;;;19.90;99.90;;;;;;4991127;28;20451;-73
2022/08/31 00:48:35;;;;;;;26.57;24.90;;;19.90;99.90;;;;;;4990957;28;20457;-73
2022/08/31 00:51:01;;;;;;;26.87;25.27;;;19.90;99.90;;;;;;4991089;28;20554;-73
2022/08/31 00:53:28;;;;;;;27.50;25.57;;;19.90;99.90;;;;;;4990821;28;20454;-72
2022/08/31 00:55:55;;;;;;;26.10;24.20;;;20.00;99.90;;;;;;4990664;28;20469;-73
2022/08/31 00:58:22;;;;;;;21.70;20.40;;;20.00;99.90;;;;;;4990672;28;20451;-73
2022/08/31 01:00:50;;;;;;;18.07;16.83;;;20.00;99.90;;;;;;4990772;28;20463;-73
2022/08/31 01:03:20;;;;;;;18.37;16.73;;;20.00;99.90;;;;;;4991117;28;20455;-72
2022/08/31 01:05:47;;;;;;;17.23;16.13;;;20.10;99.90;;;;;;4990954;28;20479;-73
2022/08/31 01:08:14;;;;;;;16.37;15.47;;;20.40;99.90;;;;;;4990713;28;20454;-72
2022/08/31 01:10:43;;;;;;;17.80;16.80;;;20.60;99.90;;;;;;4988956;28;20521;-73
2022/08/31 01:13:12;;;;;;;19.77;18.07;;;20.70;99.90;;;;;;4990633;28;20477;-73
2022/08/31 01:15:42;;;;;;;16.83;15.73;;;20.80;99.90;;;;;;4990523;28;20451;-72
2022/08/31 01:18:08;;;;;;;16.57;15.63;;;20.90;99.90;;;;;;4990507;28;20535;-73
2022/08/31 01:20:47;;;;;;;35.27;32.87;;;20.90;99.90;;;;;;4990530;28;20832;-72
2022/08/31 01:23:20;;;;;;;39.20;36.10;;;20.50;99.90;;;;;;4990069;28;20553;-71
2022/08/31 01:25:48;;;;;;;39.40;36.40;;;20.10;99.90;;;;;;4990446;28;20455;-71
2022/08/31 01:28:15;;;;;;;39.70;36.80;;;19.70;99.90;;;;;;4990311;28;20462;-71
2022/08/31 01:30:44;;;;;;;41.40;38.20;;;19.50;99.90;;;;;;4990092;28;20890;-72
2022/08/31 01:33:12;;;;;;;41.30;37.87;;;19.30;99.90;;;;;;4990058;28;21252;-71
2022/08/31 01:35:41;;;;;;;42.07;38.87;;;19.10;99.90;;;;;;4990094;28;20799;-71
2022/08/31 01:38:09;;;;;;;41.27;38.03;;;18.90;99.90;;;;;;4990178;28;20487;-71
2022/08/31 01:40:45;;;;;;;41.47;38.47;;;18.80;99.90;;;;;;4990041;28;20462;-71
2022/08/31 01:43:12;;;;;;;42.20;38.97;;;18.70;99.90;;;;;;4989946;28;20554;-70
2022/08/31 01:45:39;;;;;;;42.60;39.27;;;18.60;99.90;;;;;;4989797;28;20458;-70
2022/08/31 01:48:05;;;;;;;44.70;41.10;;;18.50;99.90;;;;;;4989975;28;20505;-69
2022/08/31 01:50:32;;;;;;;42.23;39.00;;;18.40;99.90;;;;;;4989738;28;20550;-70
2022/08/31 01:52:59;;;;;;;43.00;39.80;;;18.30;99.90;;;;;;4989561;28;20454;-70
2022/08/31 01:55:25;;;;;;;42.13;38.43;;;18.20;99.90;;;;;;4989580;28;20490;-70
2022/08/31 01:57:53;;;;;;;41.50;38.40;;;18.20;99.90;;;;;;4989903;28;20522;-70
2022/08/31 02:00:21;;;;;;;42.70;39.57;;;18.20;99.90;;;;;;4990663;28;20447;-70
2022/08/31 02:02:47;;;;;;;43.53;40.13;;;18.20;99.90;;;;;;4993955;28;20984;-70
2022/08/31 02:05:14;;;;;;;43.77;40.47;;;18.20;99.90;;;;;;4993815;28;20455;-69
2022/08/31 02:07:41;;;;;;;45.23;41.63;;;18.20;99.90;;;;;;4993642;28;20450;-70
2022/08/31 02:10:09;;;;;;;43.17;39.77;;;18.20;99.90;;;;;;4993158;28;20493;-70
2022/08/31 02:12:35;;;;;;;43.27;39.83;;;18.20;99.90;;;;;;4993637;28;20546;-69
2022/08/31 02:15:04;;;;;;;44.10;41.00;;;18.20;99.90;;;;;;4993608;28;20462;-69
2022/08/31 02:17:31;;;;;;;44.33;40.93;;;18.10;99.90;;;;;;4993570;28;20459;-69
2022/08/31 02:19:58;;;;;;;45.30;41.33;;;18.00;99.90;;;;;;4993240;28;20457;-69
2022/08/31 02:22:24;;;;;;;44.87;41.37;;;18.10;99.90;;;;;;4993576;28;20538;-69
2022/08/31 02:24:51;;;;;;;44.33;40.67;;;18.10;99.90;;;;;;4993358;28;20800;-70
2022/08/31 02:27:18;;;;;;;44.17;40.83;;;18.10;99.90;;;;;;4993511;28;20466;-69
2022/08/31 02:29:44;;;;;;;41.43;38.40;;;17.90;99.90;;;;;;4993361;28;20933;-68
2022/08/31 02:32:12;;;;;;;42.10;38.97;;;18.00;99.90;;;;;;4993040;28;20497;-68
2022/08/31 02:34:43;;;;;;;45.53;41.83;;;18.00;99.90;;;;;;4992749;28;20973;-69
2022/08/31 02:37:10;;;;;;;42.90;39.50;;;18.00;99.90;;;;;;4990411;28;20519;-69
2022/08/31 02:39:37;;;;;;;45.10;41.60;;;18.00;99.90;;;;;;4992633;28;20457;-70
2022/08/31 02:42:04;;;;;;;43.90;40.60;;;18.10;99.90;;;;;;4992750;28;20454;-69
2022/08/31 02:44:30;;;;;;;42.70;39.43;;;18.10;99.90;;;;;;4992861;28;20454;-69
2022/08/31 02:46:57;;;;;;;42.40;39.00;;;18.10;99.90;;;;;;4992453;28;20625;-69
2022/08/31 02:49:25;;;;;;;41.80;38.20;;;18.20;99.90;;;;;;4992563;28;20742;-69
2022/08/31 02:51:52;;;;;;;40.83;37.70;;;18.20;99.90;;;;;;4992630;28;20490;-69
2022/08/31 02:54:19;;;;;;;45.47;41.47;;;18.30;99.90;;;;;;4990929;28;20454;-69
2022/08/31 02:56:46;;;;;;;43.30;39.80;;;18.30;99.90;;;;;;4992739;28;20936;-69
2022/08/31 02:59:13;;;;;;;45.10;41.60;;;18.30;99.90;;;;;;4992664;28;20793;-68
2022/08/31 03:01:40;;;;;;;44.10;40.67;;;18.30;99.90;;;;;;4992323;28;20873;-68
2022/08/31 03:04:08;;;;;;;44.00;40.50;;;18.30;99.90;;;;;;4992375;28;20455;-68
2022/08/31 03:06:36;;;;;;;46.40;42.80;;;18.30;99.90;;;;;;4992289;28;20960;-68
2022/08/31 03:09:03;;;;;;;45.00;41.43;;;18.30;99.90;;;;;;4992668;28;20461;-68
2022/08/31 03:11:30;;;;;;;46.37;43.00;;;18.30;99.90;;;;;;4991658;28;20493;-68
2022/08/31 03:13:57;;;;;;;48.57;44.73;;;18.30;99.90;;;;;;4991925;28;20455;-68
2022/08/31 03:16:24;;;;;;;46.63;43.00;;;18.30;99.90;;;;;;4991901;28;20565;-68
2022/08/31 03:18:50;;;;;;;45.83;41.93;;;18.30;99.90;;;;;;4992303;28;20478;-68
2022/08/31 03:21:17;;;;;;;45.83;42.47;;;18.20;99.90;;;;;;4992421;28;20459;-69
2022/08/31 03:23:45;;;;;;;42.90;39.50;;;18.20;99.90;;;;;;4991848;28;20461;-69
2022/08/31 03:26:12;;;;;;;43.53;40.40;;;18.30;99.90;;;;;;4991760;28;20454;-69
2022/08/31 03:28:39;;;;;;;46.13;42.53;;;18.20;99.90;;;;;;4991867;28;20494;-68
2022/08/31 03:31:07;;;;;;;46.80;43.50;;;18.20;99.90;;;;;;4991996;28;20491;-68
2022/08/31 03:33:34;;;;;;;45.30;41.17;;;18.20;99.90;;;;;;4992328;28;20543;-69
2022/08/31 03:36:01;;;;;;;48.30;44.47;;;18.20;99.90;;;;;;4991928;28;20446;-68
2022/08/31 03:38:28;;;;;;;45.23;41.83;;;18.20;99.90;;;;;;4991937;28;20486;-68
2022/08/31 03:40:56;;;;;;;46.60;43.20;;;18.20;99.90;;;;;;4992160;28;20469;-69
2022/08/31 03:43:23;;;;;;;48.50;44.83;;;18.10;99.90;;;;;;4992003;28;20451;-67
2022/08/31 03:45:50;;;;;;;46.93;43.43;;;18.20;99.90;;;;;;4991944;28;20995;-68
2022/08/31 03:48:17;;;;;;;52.50;48.80;;;18.10;99.90;;;;;;4992182;28;20859;-67
2022/08/31 03:50:43;;;;;;;46.00;42.40;;;18.00;99.90;;;;;;4991570;28;20486;-67
2022/08/31 03:53:11;;;;;;;46.07;42.93;;;18.00;99.90;;;;;;4991820;28;20546;-67
2022/08/31 03:55:41;;;;;;;44.90;41.60;;;18.00;99.90;;;;;;4991349;28;20943;-67
2022/08/31 03:58:10;;;;;;;44.67;41.47;;;18.00;99.90;;;;;;4991421;28;20462;-67
2022/08/31 04:00:37;;;;;;;46.60;42.87;;;18.00;99.90;;;;;;4991304;28;20455;-66
2022/08/31 04:03:04;;;;;;;41.93;38.80;;;18.00;99.90;;;;;;4989844;28;20454;-68
2022/08/31 04:05:34;;;;;;;43.93;40.73;;;18.10;99.90;;;;;;4991988;28;20518;-67
2022/08/31 04:08:01;;;;;;;42.37;39.37;;;18.10;99.90;;;;;;4991860;28;20455;-67
2022/08/31 04:10:28;;;;;;;45.43;42.10;;;18.10;99.90;;;;;;4991463;28;20515;-67
2022/08/31 04:12:55;;;;;;;44.83;41.13;;;18.10;99.90;;;;;;4991136;28;20458;-68
2022/08/31 04:15:23;;;;;;;42.73;39.53;;;18.10;99.90;;;;;;4990867;28;20455;-68
2022/08/31 04:17:51;;;;;;;43.77;40.57;;;18.10;99.90;;;;;;4991226;28;20458;-68
2022/08/31 04:20:17;;;;;;;43.80;40.60;;;18.20;99.90;;;;;;4991117;28;20782;-68
2022/08/31 04:22:44;;;;;;;41.47;38.20;;;18.20;99.90;;;;;;4990734;28;20454;-68
2022/08/31 04:25:11;;;;;;;45.17;41.77;;;18.10;99.90;;;;;;4990752;28;20791;-68
2022/08/31 04:27:38;;;;;;;42.50;39.30;;;18.10;99.90;;;;;;4991001;28;20458;-67
2022/08/31 04:30:06;;;;;;;44.40;40.80;;;18.20;99.90;;;;;;4990944;28;20506;-66
2022/08/31 04:32:35;;;;;;;42.00;38.70;;;18.10;99.90;;;;;;4990968;28;20587;-67
2022/08/31 04:35:02;;;;;;;42.10;38.80;;;18.10;99.90;;;;;;4990885;28;20891;-68
2022/08/31 04:37:29;;;;;;;43.17;39.90;;;18.10;99.90;;;;;;4990686;28;20493;-67
2022/08/31 04:39:56;;;;;;;43.07;39.73;;;18.10;99.90;;;;;;4990739;28;20480;-68
2022/08/31 04:42:23;;;;;;;43.63;40.43;;;18.10;99.90;;;;;;4990794;28;20696;-68
2022/08/31 04:44:50;;;;;;;41.47;38.30;;;18.10;99.90;;;;;;4990616;28;20450;-68
2022/08/31 04:47:17;;;;;;;41.73;38.23;;;18.10;99.90;;;;;;4990709;28;20586;-69
2022/08/31 04:49:45;;;;;;;41.20;38.20;;;18.10;99.90;;;;;;4990295;28;20466;-69
2022/08/31 04:52:12;;;;;;;42.97;39.57;;;18.20;99.90;;;;;;4990264;28;20490;-69
2022/08/31 04:54:39;;;;;;;41.37;38.57;;;18.20;99.90;;;;;;4990351;28;21180;-67
2022/08/31 04:57:05;;;;;;;40.60;37.50;;;18.20;99.90;;;;;;4990278;28;20447;-68
2022/08/31 04:59:32;;;;;;;40.73;37.83;;;18.30;99.90;;;;;;4990437;28;20462;-68
2022/08/31 05:01:59;;;;;;;38.70;35.90;;;18.20;99.90;;;;;;4989919;28;20443;-68
2022/08/31 05:04:27;;;;;;;39.70;36.80;;;18.10;99.90;;;;;;4989999;28;20459;-70
2022/08/31 05:06:56;;;;;;;40.40;37.20;;;18.20;99.90;;;;;;4989863;28;20534;-67
2022/08/31 05:09:23;;;;;;;39.23;36.37;;;18.20;99.90;;;;;;4989776;28;20451;-68
2022/08/31 05:11:50;;;;;;;39.40;36.80;;;18.20;99.90;;;;;;4989916;28;20526;-69
2022/08/31 05:14:17;;;;;;;36.93;34.33;;;18.30;99.90;;;;;;4989728;28;20809;-69
2022/08/31 05:16:45;;;;;;;37.70;35.00;;;18.30;99.90;;;;;;4990423;28;20446;-69
2022/08/31 05:19:11;;;;;;;37.47;34.90;;;18.30;99.90;;;;;;4990222;28;20863;-70
2022/08/31 05:21:40;;;;;;;36.90;34.30;;;18.30;99.90;;;;;;4990162;28;20447;-69
2022/08/31 05:24:10;;;;;;;35.77;33.30;;;18.40;99.90;;;;;;4990118;28;20815;-69
2022/08/31 05:26:39;;;;;;;36.67;34.07;;;18.40;99.90;;;;;;4989945;28;20466;-69
2022/08/31 05:29:08;;;;;;;35.90;33.17;;;18.30;99.90;;;;;;4990077;28;20455;-70
2022/08/31 05:31:36;;;;;;;35.97;33.57;;;18.30;99.90;;;;;;4990013;28;20490;-69
2022/08/31 05:34:03;;;;;;;36.93;34.03;;;18.30;99.90;;;;;;4990170;28;20470;-69
2022/08/31 05:36:29;;;;;;;36.27;33.60;;;18.30;99.90;;;;;;4989279;28;20944;-69
2022/08/31 05:38:57;;;;;;;36.07;33.57;;;18.30;99.90;;;;;;4990267;28;20451;-69
2022/08/31 05:41:25;;;;;;;35.77;33.27;;;18.30;99.90;;;;;;4990110;28;20705;-70
2022/08/31 05:43:52;;;;;;;35.37;32.77;;;18.40;99.90;;;;;;4989723;28;20457;-68
2022/08/31 05:46:19;;;;;;;33.83;31.63;;;18.50;99.90;;;;;;4989796;28;20474;-69
2022/08/31 05:48:46;;;;;;;35.70;32.70;;;18.50;99.90;;;;;;4990268;28;20984;-68
2022/08/31 05:51:15;;;;;;;31.73;29.40;;;18.40;99.90;;;;;;4989678;28;20490;-68
2022/08/31 05:53:43;;;;;;;29.57;27.47;;;18.50;99.90;;;;;;4989571;28;20463;-68
2022/08/31 05:56:13;;;;;;;26.70;25.10;;;18.50;99.90;;;;;;4989976;28;20477;-68
2022/08/31 05:58:43;;;;;;;24.90;23.40;;;18.60;99.90;;;;;;4989934;28;20459;-69
2022/08/31 06:01:14;;;;;;;24.50;22.60;;;18.60;99.90;;;;;;4990103;28;20485;-69
2022/08/31 06:03:42;;;;;;;27.33;25.30;;;18.80;99.90;;;;;;4989865;28;20558;-69
2022/08/31 06:06:09;;;;;;;26.50;24.60;;;18.90;99.90;;;;;;4989877;28;20454;-70
2022/08/31 06:08:36;;;;;;;26.80;25.00;;;19.00;99.90;;;;;;4989897;28;20479;-70
2022/08/31 06:11:03;;;;;;;25.27;23.53;;;18.90;99.90;;;;;;4990153;28;20458;-69
2022/08/31 06:13:30;;;;;;;25.17;23.47;;;19.10;99.90;;;;;;4989872;28;20470;-69
2022/08/31 06:16:02;;;;;;;24.13;22.73;;;19.10;99.90;;;;;;4989850;28;20451;-69
2022/08/31 06:18:29;;;;;;;23.63;22.23;;;19.10;99.90;;;;;;4989847;28;20812;-69
2022/08/31 06:21:06;;;;;;;22.67;21.30;;;19.10;99.90;;;;;;4990142;28;20451;-68
2022/08/31 06:23:33;;;;;;;25.57;23.37;;;19.10;99.90;;;;;;4990261;28;20454;-69
2022/08/31 06:26:05;;;;;;;24.40;22.90;;;19.10;99.90;;;;;;4990194;28;20457;-68
2022/08/31 06:28:32;;;;;;;26.20;24.10;;;19.20;99.90;;;;;;4990117;28;20465;-69
2022/08/31 06:31:01;;;;;;;28.30;25.90;;;19.20;99.90;;;;;;4990204;28;20450;-69
2022/08/31 06:33:29;;;;;;;26.67;24.97;;;19.30;99.90;;;;;;4989996;28;20497;-69
2022/08/31 06:35:55;;;;;;;26.30;24.50;;;19.30;99.90;;;;;;4990050;28;20451;-70
2022/08/31 06:38:22;;;;;;;25.80;24.17;;;19.30;99.90;;;;;;4989646;28;21037;-70
2022/08/31 06:40:49;;;;;;;25.60;23.67;;;19.20;99.90;;;;;;4990204;28;20461;-70
2022/08/31 06:43:16;;;;;;;23.80;22.30;;;19.20;99.90;;;;;;4990149;28;20435;-69
2022/08/31 06:45:42;;;;;;;24.50;22.90;;;19.30;99.90;;;;;;4987985;28;20458;-69
2022/08/31 06:48:11;;;;;;;24.50;23.03;;;19.40;99.90;;;;;;4990946;28;20862;-71
2022/08/31 06:50:39;;;;;;;24.33;22.80;;;19.40;99.90;;;;;;4992980;28;20473;-68
2022/08/31 06:53:05;;;;;;;24.10;22.63;;;19.50;99.90;;;;;;4992992;28;20494;-69
2022/08/31 06:55:33;;;;;;;26.83;24.43;;;19.50;99.90;;;;;;4993261;28;20461;-68
2022/08/31 06:58:00;;;;;;;24.27;22.53;;;19.50;99.90;;;;;;4992965;28;20455;-69
2022/08/31 07:00:27;;;;;;;25.83;24.13;;;19.50;99.90;;;;;;4993037;28;20451;-68
2022/08/31 07:02:53;;;;;;;23.50;22.00;;;19.40;99.90;;;;;;4992992;28;20465;-67
2022/08/31 07:05:21;;;;;;;23.37;21.77;;;19.40;99.90;;;;;;4993026;28;20477;-68
2022/08/31 07:07:48;;;;;;;24.37;22.67;;;19.40;99.90;;;;;;4993464;28;20457;-69
2022/08/31 07:10:17;;;;;;;25.23;23.00;;;19.50;99.90;;;;;;4993524;28;20466;-68
2022/08/31 07:12:44;;;;;;;22.37;21.10;;;19.60;99.90;;;;;;4993205;28;20791;-68
2022/08/31 07:15:11;;;;;;;23.63;22.13;;;19.70;99.90;;;;;;4992849;28;20450;-70
2022/08/31 07:17:38;;;;;;;23.83;22.20;;;19.70;99.90;;;;;;4992577;28;20454;-68
2022/08/31 07:20:05;;;;;;;21.97;20.77;;;19.70;99.90;;;;;;4992895;28;20810;-69
2022/08/31 07:22:33;;;;;;;21.13;20.13;;;19.80;99.90;;;;;;4992991;28;20458;-69
2022/08/31 07:25:00;;;;;;;20.60;19.43;;;19.80;99.90;;;;;;4993055;28;20459;-69
2022/08/31 07:27:28;;;;;;;21.50;20.30;;;19.90;99.90;;;;;;4992993;28;20957;-68
2022/08/31 07:29:56;;;;;;;21.17;19.87;;;20.00;99.90;;;;;;4993175;28;20458;-69
2022/08/31 07:32:23;;;;;;;21.77;20.30;;;20.00;99.90;;;;;;4992925;28;20486;-68
2022/08/31 07:34:50;;;;;;;22.30;20.80;;;20.00;99.90;;;;;;4993246;28;20467;-67
2022/08/31 07:42:46;;;;;;;27.37;25.67;;;20.20;99.90;;;;;;4993250;28;20491;-69
2022/08/31 07:45:18;;;;;;;25.63;24.10;;;20.20;99.90;;;;;;4993110;28;20795;-70
2022/08/31 07:47:45;;;;;;;27.50;25.50;;;20.10;99.90;;;;;;4993086;28;20451;-70
2022/08/31 07:50:14;;;;;;;25.57;24.07;;;20.10;99.90;;;;;;4990622;28;20469;-70
2022/08/31 07:52:45;;;;;;;26.63;24.87;;;20.00;99.90;;;;;;4992095;28;20487;-70
2022/08/31 07:55:16;;;;;;;26.80;25.40;;;19.80;99.90;;;;;;4991989;28;20462;-70
2022/08/31 07:57:43;;;;;;;26.33;24.60;;;19.70;99.90;;;;;;4991200;28;20486;-68
2022/08/31 08:00:13;;;;;;;26.53;24.97;;;19.70;99.90;;;;;;4991612;28;20482;-69
2022/08/31 08:02:40;;;;;;;25.90;24.30;;;19.60;99.90;;;;;;4991935;28;20458;-68
2022/08/31 08:05:10;;;;;;;26.80;24.93;;;19.60;99.90;;;;;;4991777;28;20455;-69
2022/08/31 08:07:38;;;;;;;31.13;29.03;;;19.50;99.90;;;;;;4991835;28;20467;-70
2022/08/31 08:10:08;;;;;;;26.80;25.20;;;19.50;99.90;;;;;;4991899;28;20445;-68
2022/08/31 08:12:36;;;;;;;25.63;24.20;;;19.50;99.90;;;;;;4991585;28;21088;-67
2022/08/31 08:15:06;;;;;;;25.40;24.10;;;19.40;99.90;;;;;;4991679;28;20501;-68
2022/08/31 08:17:33;;;;;;;23.47;22.27;;;19.40;99.90;;;;;;4991683;28;20992;-69
2022/08/31 08:20:00;;;;;;;23.33;22.03;;;19.40;99.90;;;;;;4991541;28;20461;-69
2022/08/31 08:22:27;;;;;;;20.27;18.97;;;19.50;99.90;;;;;;4991343;28;20455;-70
2022/08/31 08:24:54;;;;;;;20.80;19.40;;;19.50;99.90;;;;;;4991393;28;20975;-68
2022/08/31 08:27:21;;;;;;;21.70;20.37;;;19.50;99.90;;;;;;4991344;28;20454;-69
2022/08/31 08:29:49;;;;;;;20.37;19.00;;;19.60;99.90;;;;;;4991484;28;20455;-69
2022/08/31 08:32:17;;;;;;;21.27;19.83;;;19.70;99.90;;;;;;4991337;28;20497;-69
2022/08/31 08:34:45;;;;;;;22.53;20.93;;;19.80;99.90;;;;;;4990975;28;20482;-69
2022/08/31 08:37:12;;;;;;;23.07;21.40;;;19.90;99.90;;;;;;4990807;28;20848;-67
2022/08/31 08:39:41;;;;;;;23.40;21.70;;;19.80;99.90;;;;;;4990827;28;20458;-67
2022/08/31 08:42:10;;;;;;;20.97;19.77;;;19.90;99.90;;;;;;4991004;28;20465;-69
2022/08/31 08:44:37;;;;;;;20.03;18.87;;;20.00;99.90;;;;;;4990746;28;20502;-69
2022/08/31 08:47:13;;;;;;;21.37;20.00;;;20.00;99.90;;;;;;4990917;28;20518;-67
2022/08/31 08:49:45;;;;;;;20.03;18.87;;;20.00;99.90;;;;;;4990469;28;20666;-68
2022/08/31 08:52:21;;;;;;;152.23;136.27;;;20.10;99.90;;;;;;4990135;28;21000;-68
2022/08/31 08:54:49;;;;;;;57.60;53.13;;;20.20;99.90;;;;;;4990149;28;20462;-69
2022/08/31 16:44:33;;;;;;;27.90;25.93;;;17.80;99.90;;;;;;5086171;27;20557;-69
2022/08/31 16:47:01;;;;;;;26.97;24.70;;;18.00;99.90;;;;;;5085910;28;20932;-71
2022/08/31 16:49:33;;;;;;;27.57;25.80;;;18.20;99.90;;;;;;5085947;28;20450;-69
2022/08/31 16:52:02;;;;;;;26.30;24.70;;;18.40;99.90;;;;;;5084809;28;20450;-69
2022/08/31 16:54:28;;;;;;;26.50;24.60;;;18.50;99.90;;;;;;5084100;28;20450;-69
2022/08/31 16:56:56;;;;;;;26.80;25.10;;;18.60;99.90;;;;;;5085958;28;20446;-69
2022/08/31 16:59:24;;;;;;;26.90;25.23;;;18.70;99.90;;;;;;5085777;28;20454;-69
2022/08/31 17:01:53;;;;;;;27.03;25.23;;;18.90;99.90;;;;;;5083835;28;20974;-69
2022/08/31 17:04:22;;;;;;;27.00;24.97;;;18.90;99.90;;;;;;5082864;28;20482;-69
2022/08/31 17:06:49;;;;;;;26.47;24.47;;;19.00;99.90;;;;;;5083935;28;20450;-69
2022/08/31 17:09:20;;;;;;;27.30;25.30;;;19.10;99.90;;;;;;5082206;28;20939;-70
2022/08/31 17:11:49;;;;;;;26.67;24.87;;;19.20;99.90;;;;;;5075538;28;20466;-69
2022/08/31 17:14:19;;;;;;;25.60;24.10;;;19.20;99.90;;;;;;5085377;28;20596;-70
2022/08/31 17:16:47;;;;;;;25.37;23.57;;;19.30;99.90;;;;;;5081295;28;20785;-71
2022/08/31 17:19:15;;;;;;;25.67;23.60;;;19.30;99.90;;;;;;5045052;28;20454;-70
2022/08/31 17:21:48;;;;;;;24.33;22.77;;;19.30;99.90;;;;;;5044621;28;20452;-70
2022/08/31 17:24:16;;;;;;;24.70;23.20;;;19.30;99.90;;;;;;5045003;28;20548;-70
2022/08/31 17:26:42;;;;;;;24.63;23.13;;;19.30;99.90;;;;;;5056128;28;20444;-71
2022/08/31 17:29:10;;;;;;;26.60;24.70;;;19.30;99.90;;;;;;5064697;28;20451;-70
2022/08/31 17:31:42;;;;;;;26.47;24.47;;;19.30;99.90;;;;;;5065225;28;20458;-70
2022/08/31 17:34:09;;;;;;;26.40;24.70;;;19.30;99.90;;;;;;5064682;28;20849;-70
2022/08/31 17:36:39;;;;;;;26.27;24.57;;;19.30;99.90;;;;;;5064612;28;20451;-71
2022/08/31 17:39:07;;;;;;;26.87;25.27;;;19.30;99.90;;;;;;5064690;28;20462;-71
2022/08/31 17:41:33;;;;;;;26.97;25.33;;;19.20;99.90;;;;;;5064704;28;20451;-71
2022/08/31 17:44:00;;;;;;;28.70;26.77;;;19.10;99.90;;;;;;5064070;28;20991;-71
2022/08/31 17:46:27;;;;;;;27.37;25.43;;;19.10;99.90;;;;;;5064611;28;20490;-71
2022/08/31 17:48:55;;;;;;;30.97;28.57;;;18.90;99.90;;;;;;5064130;28;20462;-71
2022/08/31 17:51:26;;;;;;;29.70;27.43;;;18.80;99.90;;;;;;5064503;28;20505;-71
2022/08/31 17:53:56;;;;;;;29.17;27.07;;;18.70;99.90;;;;;;5061589;28;20484;-72
2022/08/31 17:56:23;;;;;;;29.90;27.80;;;18.60;99.90;;;;;;5051274;28;20498;-72
2022/08/31 17:58:50;;;;;;;29.00;27.00;;;18.50;99.90;;;;;;5050571;28;20474;-72
2022/08/31 18:01:21;;;;;;;28.27;26.27;;;18.50;99.90;;;;;;5049071;28;20824;-71
2022/08/31 18:03:48;;;;;;;32.03;29.43;;;18.40;99.90;;;;;;5048044;28;20834;-71
2022/08/31 18:06:17;;;;;;;31.63;29.10;;;18.30;99.90;;;;;;5050161;28;20913;-72
2022/08/31 18:08:44;;;;;;;30.40;28.40;;;18.20;99.90;;;;;;5050418;28;20521;-72
2022/08/31 18:11:12;;;;;;;31.70;29.43;;;18.20;99.90;;;;;;5050979;28;20455;-72
2022/08/31 18:13:40;;;;;;;33.40;30.70;;;18.10;99.90;;;;;;5050609;28;20847;-71
2022/08/31 18:16:07;;;;;;;31.23;28.97;;;18.10;99.90;;;;;;5051004;28;20503;-72
2022/08/31 18:18:34;;;;;;;32.90;30.53;;;18.00;99.90;;;;;;5050660;28;20475;-71
2022/08/31 18:21:06;;;;;;;33.40;31.00;;;18.00;99.90;;;;;;5050821;28;20455;-71
2022/08/31 18:23:34;;;;;;;33.97;31.27;;;18.00;99.90;;;;;;5050663;28;20459;-71
2022/08/31 18:26:00;;;;;;;34.10;31.50;;;18.00;99.90;;;;;;5050657;28;20448;-72
2022/08/31 18:28:28;;;;;;;36.73;33.17;;;17.90;99.90;;;;;;5050337;28;20793;-70
2022/08/31 18:30:55;;;;;;;38.37;34.97;;;17.90;99.90;;;;;;5050363;28;20534;-72
2022/08/31 18:33:23;;;;;;;34.40;31.93;;;17.90;99.90;;;;;;5050205;28;21042;-71
2022/08/31 18:35:50;;;;;;;34.63;32.23;;;17.80;99.90;;;;;;5050497;28;20452;-72
2022/08/31 18:38:17;;;;;;;33.30;30.70;;;17.70;99.90;;;;;;5050385;28;20491;-72
2022/08/31 18:46:13;;;;;;;34.23;31.73;;;17.60;99.90;;;;;;5049913;28;21035;-71
2022/08/31 18:48:46;;;;;;;33.00;30.80;;;17.60;99.90;;;;;;5049714;28;20444;-71
2022/08/31 18:51:13;;;;;;;33.37;30.63;;;17.50;99.90;;;;;;5049954;28;20452;-71
2022/08/31 18:53:40;;;;;;;32.87;30.60;;;17.40;99.90;;;;;;5049663;28;20495;-70
2022/08/31 18:56:09;;;;;;;34.60;31.93;;;17.40;99.90;;;;;;5049652;28;20921;-71
2022/08/31 18:58:38;;;;;;;32.77;30.27;;;17.40;99.90;;;;;;5050284;28;20885;-72
2022/08/31 19:01:09;;;;;;;33.53;31.07;;;17.40;99.90;;;;;;5050075;28;20456;-71
2022/08/31 19:03:37;;;;;;;34.80;32.10;;;17.30;99.90;;;;;;5050161;28;20541;-71
2022/08/31 19:06:04;;;;;;;36.23;33.40;;;17.30;99.90;;;;;;5047284;28;21028;-72
2022/08/31 19:08:31;;;;;;;36.53;33.73;;;17.20;99.90;;;;;;5038011;28;20463;-71
2022/08/31 19:10:57;;;;;;;36.30;33.60;;;17.30;99.90;;;;;;5040376;28;20451;-71
2022/08/31 19:13:28;;;;;;;37.70;34.60;;;17.20;99.90;;;;;;5038965;28;20489;-70
2022/08/31 19:15:57;;;;;;;36.37;33.10;;;17.20;99.90;;;;;;5038526;28;20444;-72
2022/08/31 19:21:12;;;;;;;30.20;28.03;;;17.10;99.90;;;;;;5012714;28;20515;-70
2022/08/31 19:23:39;;;;;;;35.30;32.60;;;17.10;99.90;;;;;;5039718;28;20439;-71
2022/08/31 19:26:06;;;;;;;34.10;31.70;;;17.00;99.90;;;;;;5038947;28;20789;-69
2022/08/31 19:28:33;;;;;;;34.27;31.30;;;17.00;99.90;;;;;;5038418;28;20460;-71
2022/08/31 19:31:01;;;;;;;34.47;31.77;;;17.00;99.90;;;;;;5039863;28;20800;-71
2022/08/31 19:33:28;;;;;;;37.93;34.40;;;17.00;99.90;;;;;;5038864;28;20477;-72
2022/08/31 19:36:00;;;;;;;34.37;31.83;;;17.00;99.90;;;;;;5038036;28;20896;-72
2022/08/31 19:38:27;;;;;;;33.10;30.60;;;17.00;99.90;;;;;;5039897;28;20731;-70
2022/08/31 19:40:56;;;;;;;35.37;32.47;;;17.00;99.90;;;;;;5039612;28;20743;-71
2022/08/31 19:43:22;;;;;;;36.03;33.13;;;16.90;99.90;;;;;;5039685;28;20480;-71
2022/08/31 19:45:49;;;;;;;37.10;34.10;;;16.90;99.90;;;;;;5039099;28;20453;-71
2022/08/31 19:48:21;;;;;;;35.50;32.80;;;16.90;99.90;;;;;;5040009;28;20448;-71
2022/08/31 19:50:49;;;;;;;35.83;33.07;;;16.90;99.90;;;;;;5039187;28;20494;-72
2022/08/31 19:53:16;;;;;;;39.67;35.90;;;16.90;99.90;;;;;;5039479;28;20473;-72
2022/08/31 19:55:47;;;;;;;39.03;36.00;;;16.90;99.90;;;;;;5039473;28;20641;-71
2022/08/31 19:58:15;;;;;;;36.80;33.80;;;16.90;99.90;;;;;;5029240;28;20460;-70
2022/08/31 20:00:42;;;;;;;36.93;33.63;;;16.80;99.90;;;;;;5029001;28;20448;-70
2022/08/31 20:03:09;;;;;;;38.07;35.17;;;16.80;99.90;;;;;;5028245;28;20453;-70
2022/08/31 20:05:39;;;;;;;38.33;35.30;;;16.80;99.90;;;;;;5029193;28;20946;-70
2022/08/31 20:08:06;;;;;;;37.97;35.23;;;16.80;99.90;;;;;;5028698;28;20457;-71
2022/08/31 20:10:33;;;;;;;38.33;35.47;;;16.80;99.90;;;;;;5028717;28;20930;-70
2022/08/31 20:13:00;;;;;;;40.43;37.20;;;16.80;99.90;;;;;;5028443;28;20452;-71
2022/08/31 20:15:27;;;;;;;40.60;37.47;;;16.80;99.90;;;;;;5027918;28;20488;-71
2022/08/31 20:17:56;;;;;;;40.23;36.83;;;16.80;99.90;;;;;;5033576;28;20468;-71
2022/08/31 20:20:27;;;;;;;40.63;37.33;;;16.80;99.90;;;;;;5036442;28;20545;-72
2022/08/31 20:22:56;;;;;;;44.10;40.23;;;16.80;99.90;;;;;;5036785;28;20453;-72
2022/08/31 20:25:24;;;;;;;40.20;36.93;;;16.70;99.90;;;;;;5038483;28;20459;-71
2022/08/31 20:27:52;;;;;;;46.70;42.30;;;16.80;99.90;;;;;;5039237;28;20445;-72
2022/08/31 20:30:19;;;;;;;47.20;43.20;;;16.70;99.90;;;;;;5039386;28;20538;-72
2022/08/31 20:32:45;;;;;;;46.93;42.83;;;16.80;99.90;;;;;;5037974;28;20501;-73